Saturday, January 20, 2018, 1:24 AM GMT
Back to Local

CWST, La Pocatiere

Location: , , Canada Lat: 47.35
Local Time: 1:24 AM GMT ( 1:24 GMT) Lon: -70.033
Time Zone: GMT Elev: 101 ft

Show me the last for .
Show Decoded

2018-01-20 01:00 METAR CWST 200100Z AUTO 22015KT M03/M05 RMK AO1 SOG 15 8017 PK WND 22019/0013
                 SLP059 T10281047 =
2018-01-20 00:00 METAR CWST 200000Z AUTO 22012KT M03/M05 RMK AO1 SOG 15 5008 PK WND 23019/2327
                 SLP071 T10301048 =
2018-01-19 23:00 METAR CWST 192300Z AUTO 21011KT M03/M06 RMK AO1 SOG 15 8020 SLP065 T10311055 =
2018-01-19 22:00 METAR CWST 192200Z AUTO 20012G17KT M03/M06 RMK AO1 SOG 15 8010 PK WND 22018/2125
                 SLP076 T10331055 =
2018-01-19 21:00 METAR CWST 192100Z AUTO 22013G18KT M03/M06 RMK AO1 SOG 16 6015 PK WND 21018/2054
                 SLP079 T10251058 =
2018-01-19 20:00 METAR CWST 192000Z AUTO 19002KT M05/M08 RMK AO1 SOG 15 6014 SLP085 T10541077 =
2018-01-19 19:00 METAR CWST 191900Z AUTO 05002KT M07/M09 RMK AO1 SOG 15 8019 SLP086 T10681090 =
2018-01-19 18:00 METAR CWST 191800Z AUTO 05001KT M07/M10 RMK AO1 SOG 15 7016 SLP094 T10731096 =
2018-01-19 17:00 METAR CWST 191700Z AUTO 06003KT M07/M10 RMK AO1 SOG 15 8013 SLP099 T10721095 =
2018-01-19 16:00 METAR CWST 191600Z AUTO 10001KT M07/M10 RMK AO1 SOG 15 8003 SLP105 T10721101 =
2018-01-19 15:00 METAR CWST 191500Z AUTO 00000KT M08/M10 RMK AO1 SOG 15 0002 SLP110 T10771102 =
2018-01-19 14:00 METAR CWST 191400Z AUTO 04001KT M08/M10 RMK AO1 SOG 15 3007 SLP112 T10811102 =
2018-01-19 13:00 METAR CWST 191300Z AUTO 04002KT M08/M10 RMK AO1 SOG 15 1004 SLP108 T10841095 =
2018-01-19 12:00 METAR CWST 191200Z AUTO 04002KT M08/M11 RMK AO1 SOG 15 3004 SLP108 T10821107 =
2018-01-19 11:00 METAR CWST 191100Z AUTO 02002KT M08/M10 RMK AO1 SOG 15 5001 SLP105 T10791104 =
2018-01-19 10:00 METAR CWST 191000Z AUTO 01002KT M08/M10 RMK AO1 SOG 15 1001 SLP104 T10771101 =
2018-01-19 09:00 METAR CWST 190900Z AUTO 03002KT M07/M10 RMK AO1 SOG 15 0001 SLP104 T10741099 =
2018-01-19 08:00 METAR CWST 190800Z AUTO 35004KT M07/M09 RMK AO1 SOG 15 3001 SLP106 T10691094 =
2018-01-19 07:00 METAR CWST 190700Z AUTO 21008KT M05/M07 RMK AO1 SOG 15 8001 SLP103 T10531073 =
2018-01-19 06:00 METAR CWST 190600Z AUTO 26007KT M06/M07 RMK AO1 SOG 15 8001 SLP103 T10561074 =
2018-01-19 05:00 METAR CWST 190500Z AUTO 25006KT M06/M07 RMK AO1 SOG 15 1006 SLP105 T10571074 =
2018-01-19 04:00 METAR CWST 190400Z AUTO 21009KT M05/M07 RMK AO1 SOG 15 1006 SLP104 T10521072 =
2018-01-19 03:00 METAR CWST 190300Z AUTO 22011KT M05/M08 RMK AO1 SOG 15 3006 SLP104 T10451077 =
2018-01-19 02:00 METAR CWST 190200Z AUTO 22011KT M05/M08 RMK AO1 SOG 15 3001 SLP099 T10451077 =

Support USWX by starting your Amazon purchase here.